sensor_id;sensor_type;location;lat;lon;timestamp;P1;durP1;ratioP1;P2;durP2;ratioP2
29238;SDS011;16267;48.194;11.546;2022-08-19T00:07:03;3.78;;;3.20;;
29238;SDS011;16267;48.194;11.546;2022-08-19T00:09:32;3.28;;;2.97;;
29238;SDS011;16267;48.194;11.546;2022-08-19T00:11:58;4.35;;;2.72;;
29238;SDS011;16267;48.194;11.546;2022-08-19T00:14:25;3.30;;;3.00;;
29238;SDS011;16267;48.194;11.546;2022-08-19T00:16:52;3.45;;;3.13;;
29238;SDS011;16267;48.194;11.546;2022-08-19T00:19:19;6.65;;;3.17;;
29238;SDS011;16267;48.194;11.546;2022-08-19T00:21:46;4.00;;;3.35;;
29238;SDS011;16267;48.194;11.546;2022-08-19T00:24:13;4.53;;;3.50;;
29238;SDS011;16267;48.194;11.546;2022-08-19T00:26:41;5.30;;;3.88;;
29238;SDS011;16267;48.194;11.546;2022-08-19T00:29:09;3.90;;;3.50;;
29238;SDS011;16267;48.194;11.546;2022-08-19T00:31:37;6.20;;;3.95;;
29238;SDS011;16267;48.194;11.546;2022-08-19T00:34:03;4.63;;;3.78;;
29238;SDS011;16267;48.194;11.546;2022-08-19T00:36:29;5.10;;;4.18;;
29238;SDS011;16267;48.194;11.546;2022-08-19T00:38:57;4.28;;;3.88;;
29238;SDS011;16267;48.194;11.546;2022-08-19T00:41:33;6.97;;;4.88;;
29238;SDS011;16267;48.194;11.546;2022-08-19T00:44:04;6.57;;;5.38;;
29238;SDS011;16267;48.194;11.546;2022-08-19T00:46:32;5.78;;;5.03;;
29238;SDS011;16267;48.194;11.546;2022-08-19T00:49:06;6.55;;;5.95;;
29238;SDS011;16267;48.194;11.546;2022-08-19T00:51:55;7.50;;;5.97;;
29238;SDS011;16267;48.194;11.546;2022-08-19T00:54:42;7.55;;;6.80;;
29238;SDS011;16267;48.194;11.546;2022-08-19T00:57:10;8.75;;;5.78;;
29238;SDS011;16267;48.194;11.546;2022-08-19T00:59:40;6.90;;;6.20;;
29238;SDS011;16267;48.194;11.546;2022-08-19T01:02:10;8.90;;;6.32;;
29238;SDS011;16267;48.194;11.546;2022-08-19T01:04:36;8.77;;;7.85;;
29238;SDS011;16267;48.194;11.546;2022-08-19T01:07:03;10.38;;;7.13;;
29238;SDS011;16267;48.194;11.546;2022-08-19T01:09:29;9.10;;;7.05;;
29238;SDS011;16267;48.194;11.546;2022-08-19T01:11:56;10.07;;;7.70;;
29238;SDS011;16267;48.194;11.546;2022-08-19T01:14:21;9.82;;;7.63;;
29238;SDS011;16267;48.194;11.546;2022-08-19T01:16:49;8.32;;;7.28;;
29238;SDS011;16267;48.194;11.546;2022-08-19T01:19:22;9.20;;;7.43;;
29238;SDS011;16267;48.194;11.546;2022-08-19T01:22:55;9.18;;;7.40;;
29238;SDS011;16267;48.194;11.546;2022-08-19T01:24:49;11.18;;;8.35;;
29238;SDS011;16267;48.194;11.546;2022-08-19T01:27:17;8.20;;;7.40;;
29238;SDS011;16267;48.194;11.546;2022-08-19T01:29:43;8.55;;;7.63;;
29238;SDS011;16267;48.194;11.546;2022-08-19T01:32:14;9.82;;;8.60;;
29238;SDS011;16267;48.194;11.546;2022-08-19T01:34:42;11.27;;;7.63;;
29238;SDS011;16267;48.194;11.546;2022-08-19T01:37:11;9.60;;;8.00;;
29238;SDS011;16267;48.194;11.546;2022-08-19T01:39:39;11.13;;;8.70;;
29238;SDS011;16267;48.194;11.546;2022-08-19T01:42:08;11.15;;;8.90;;
29238;SDS011;16267;48.194;11.546;2022-08-19T01:44:37;11.75;;;7.90;;
29238;SDS011;16267;48.194;11.546;2022-08-19T01:47:05;10.63;;;8.35;;
29238;SDS011;16267;48.194;11.546;2022-08-19T01:49:33;10.50;;;9.00;;
29238;SDS011;16267;48.194;11.546;2022-08-19T01:51:59;8.65;;;7.80;;
29238;SDS011;16267;48.194;11.546;2022-08-19T01:54:25;11.23;;;8.35;;
29238;SDS011;16267;48.194;11.546;2022-08-19T01:56:52;10.20;;;8.57;;
29238;SDS011;16267;48.194;11.546;2022-08-19T01:59:28;10.38;;;8.60;;
29238;SDS011;16267;48.194;11.546;2022-08-19T02:01:55;11.30;;;8.77;;
29238;SDS011;16267;48.194;11.546;2022-08-19T02:04:21;10.10;;;8.20;;
29238;SDS011;16267;48.194;11.546;2022-08-19T02:06:48;11.23;;;7.90;;
29238;SDS011;16267;48.194;11.546;2022-08-19T02:09:15;8.75;;;7.40;;
29238;SDS011;16267;48.194;11.546;2022-08-19T02:11:41;11.02;;;9.50;;
29238;SDS011;16267;48.194;11.546;2022-08-19T02:14:07;7.95;;;7.15;;
29238;SDS011;16267;48.194;11.546;2022-08-19T02:16:34;9.32;;;7.75;;
29238;SDS011;16267;48.194;11.546;2022-08-19T02:19:01;10.77;;;8.75;;
29238;SDS011;16267;48.194;11.546;2022-08-19T02:21:27;11.30;;;8.02;;
29238;SDS011;16267;48.194;11.546;2022-08-19T02:23:54;9.85;;;8.43;;
29238;SDS011;16267;48.194;11.546;2022-08-19T02:26:20;9.38;;;7.70;;
29238;SDS011;16267;48.194;11.546;2022-08-19T02:28:46;9.82;;;7.95;;
29238;SDS011;16267;48.194;11.546;2022-08-19T02:31:14;9.75;;;8.77;;
29238;SDS011;16267;48.194;11.546;2022-08-19T02:33:44;8.43;;;7.28;;
29238;SDS011;16267;48.194;11.546;2022-08-19T02:36:11;8.93;;;7.85;;
29238;SDS011;16267;48.194;11.546;2022-08-19T02:38:39;8.43;;;7.55;;
29238;SDS011;16267;48.194;11.546;2022-08-19T02:41:18;9.88;;;7.65;;
29238;SDS011;16267;48.194;11.546;2022-08-19T02:43:50;8.82;;;6.80;;
29238;SDS011;16267;48.194;11.546;2022-08-19T02:46:17;8.40;;;7.32;;
29238;SDS011;16267;48.194;11.546;2022-08-19T02:48:53;7.68;;;6.45;;
29238;SDS011;16267;48.194;11.546;2022-08-19T02:51:25;8.45;;;6.82;;
29238;SDS011;16267;48.194;11.546;2022-08-19T02:53:58;7.43;;;6.32;;
29238;SDS011;16267;48.194;11.546;2022-08-19T02:56:25;9.40;;;6.32;;
29238;SDS011;16267;48.194;11.546;2022-08-19T02:58:52;7.47;;;6.05;;
29238;SDS011;16267;48.194;11.546;2022-08-19T03:01:25;8.15;;;6.15;;
29238;SDS011;16267;48.194;11.546;2022-08-19T03:03:57;8.63;;;6.97;;
29238;SDS011;16267;48.194;11.546;2022-08-19T03:06:27;10.13;;;6.47;;
29238;SDS011;16267;48.194;11.546;2022-08-19T03:08:54;7.57;;;6.32;;
29238;SDS011;16267;48.194;11.546;2022-08-19T03:11:24;7.40;;;6.10;;
29238;SDS011;16267;48.194;11.546;2022-08-19T03:13:56;11.90;;;6.80;;
29238;SDS011;16267;48.194;11.546;2022-08-19T03:16:24;10.55;;;7.35;;
29238;SDS011;16267;48.194;11.546;2022-08-19T03:18:52;10.48;;;6.72;;
29238;SDS011;16267;48.194;11.546;2022-08-19T03:21:25;8.05;;;6.75;;
29238;SDS011;16267;48.194;11.546;2022-08-19T03:23:54;7.40;;;6.65;;
29238;SDS011;16267;48.194;11.546;2022-08-19T03:26:21;8.75;;;6.45;;
29238;SDS011;16267;48.194;11.546;2022-08-19T03:28:47;10.35;;;6.82;;
29238;SDS011;16267;48.194;11.546;2022-08-19T03:31:15;8.32;;;6.55;;
29238;SDS011;16267;48.194;11.546;2022-08-19T03:36:30;8.47;;;6.80;;
29238;SDS011;16267;48.194;11.546;2022-08-19T03:38:58;7.40;;;6.60;;
29238;SDS011;16267;48.194;11.546;2022-08-19T03:41:27;7.00;;;6.18;;
29238;SDS011;16267;48.194;11.546;2022-08-19T03:43:56;11.25;;;7.45;;
29238;SDS011;16267;48.194;11.546;2022-08-19T03:46:24;8.57;;;7.28;;
29238;SDS011;16267;48.194;11.546;2022-08-19T03:48:53;10.35;;;6.57;;
29238;SDS011;16267;48.194;11.546;2022-08-19T03:51:34;7.03;;;6.32;;
29238;SDS011;16267;48.194;11.546;2022-08-19T03:54:05;8.00;;;6.53;;
29238;SDS011;16267;48.194;11.546;2022-08-19T03:56:34;8.27;;;7.47;;
29238;SDS011;16267;48.194;11.546;2022-08-19T03:59:02;9.63;;;7.72;;
29238;SDS011;16267;48.194;11.546;2022-08-19T04:01:30;12.07;;;8.25;;
29238;SDS011;16267;48.194;11.546;2022-08-19T04:03:56;8.95;;;7.22;;
29238;SDS011;16267;48.194;11.546;2022-08-19T04:06:25;9.98;;;7.65;;
29238;SDS011;16267;48.194;11.546;2022-08-19T04:08:56;6.97;;;5.88;;
29238;SDS011;16267;48.194;11.546;2022-08-19T04:11:27;11.63;;;7.13;;
29238;SDS011;16267;48.194;11.546;2022-08-19T04:14:16;8.05;;;7.25;;
29238;SDS011;16267;48.194;11.546;2022-08-19T04:16:45;8.30;;;7.38;;
29238;SDS011;16267;48.194;11.546;2022-08-19T04:19:13;8.45;;;7.43;;
29238;SDS011;16267;48.194;11.546;2022-08-19T04:21:42;9.52;;;7.80;;
29238;SDS011;16267;48.194;11.546;2022-08-19T04:24:19;8.88;;;7.97;;
29238;SDS011;16267;48.194;11.546;2022-08-19T04:26:46;9.48;;;7.32;;
29238;SDS011;16267;48.194;11.546;2022-08-19T04:29:14;10.15;;;7.75;;
29238;SDS011;16267;48.194;11.546;2022-08-19T04:31:46;11.00;;;8.88;;
29238;SDS011;16267;48.194;11.546;2022-08-19T04:34:15;11.38;;;7.78;;
29238;SDS011;16267;48.194;11.546;2022-08-19T04:39:14;12.18;;;8.70;;
29238;SDS011;16267;48.194;11.546;2022-08-19T04:41:43;10.30;;;7.93;;
29238;SDS011;16267;48.194;11.546;2022-08-19T04:44:28;9.88;;;8.43;;
29238;SDS011;16267;48.194;11.546;2022-08-19T04:46:56;7.95;;;7.13;;
29238;SDS011;16267;48.194;11.546;2022-08-19T04:49:22;10.00;;;8.18;;
29238;SDS011;16267;48.194;11.546;2022-08-19T04:51:50;10.10;;;7.63;;
29238;SDS011;16267;48.194;11.546;2022-08-19T04:54:18;10.55;;;8.10;;
29238;SDS011;16267;48.194;11.546;2022-08-19T04:56:47;9.07;;;7.15;;
29238;SDS011;16267;48.194;11.546;2022-08-19T04:59:15;11.52;;;7.75;;
29238;SDS011;16267;48.194;11.546;2022-08-19T05:01:43;9.30;;;7.88;;
29238;SDS011;16267;48.194;11.546;2022-08-19T05:04:09;9.23;;;7.32;;
29238;SDS011;16267;48.194;11.546;2022-08-19T05:06:35;8.95;;;7.82;;
29238;SDS011;16267;48.194;11.546;2022-08-19T05:09:02;10.73;;;7.80;;
29238;SDS011;16267;48.194;11.546;2022-08-19T05:11:31;11.13;;;8.30;;
29238;SDS011;16267;48.194;11.546;2022-08-19T05:14:00;9.35;;;7.95;;
29238;SDS011;16267;48.194;11.546;2022-08-19T05:16:26;10.40;;;7.40;;
29238;SDS011;16267;48.194;11.546;2022-08-19T05:18:53;10.10;;;7.88;;
29238;SDS011;16267;48.194;11.546;2022-08-19T05:21:39;11.05;;;7.65;;
29238;SDS011;16267;48.194;11.546;2022-08-19T05:24:25;11.00;;;7.93;;
29238;SDS011;16267;48.194;11.546;2022-08-19T05:26:52;10.40;;;7.88;;
29238;SDS011;16267;48.194;11.546;2022-08-19T05:29:22;10.35;;;8.30;;
29238;SDS011;16267;48.194;11.546;2022-08-19T05:31:51;13.30;;;9.05;;
29238;SDS011;16267;48.194;11.546;2022-08-19T05:34:19;10.20;;;8.82;;
29238;SDS011;16267;48.194;11.546;2022-08-19T05:36:47;13.13;;;8.65;;
29238;SDS011;16267;48.194;11.546;2022-08-19T05:39:16;10.13;;;8.18;;
29238;SDS011;16267;48.194;11.546;2022-08-19T05:41:46;10.23;;;8.77;;
29238;SDS011;16267;48.194;11.546;2022-08-19T05:44:16;9.05;;;7.97;;
29238;SDS011;16267;48.194;11.546;2022-08-19T05:46:43;11.88;;;8.32;;
29238;SDS011;16267;48.194;11.546;2022-08-19T05:49:12;10.82;;;8.05;;
29238;SDS011;16267;48.194;11.546;2022-08-19T05:51:40;11.52;;;8.18;;
29238;SDS011;16267;48.194;11.546;2022-08-19T05:54:07;11.25;;;7.68;;
29238;SDS011;16267;48.194;11.546;2022-08-19T05:56:33;12.77;;;10.07;;
29238;SDS011;16267;48.194;11.546;2022-08-19T05:59:03;10.90;;;9.40;;
29238;SDS011;16267;48.194;11.546;2022-08-19T06:01:34;10.82;;;9.43;;
29238;SDS011;16267;48.194;11.546;2022-08-19T06:04:01;12.13;;;9.20;;
29238;SDS011;16267;48.194;11.546;2022-08-19T06:06:28;11.07;;;8.75;;
29238;SDS011;16267;48.194;11.546;2022-08-19T06:08:54;17.98;;;10.02;;
29238;SDS011;16267;48.194;11.546;2022-08-19T06:11:22;13.68;;;10.32;;
29238;SDS011;16267;48.194;11.546;2022-08-19T06:14:00;11.10;;;9.35;;
29238;SDS011;16267;48.194;11.546;2022-08-19T06:16:40;11.43;;;9.93;;
29238;SDS011;16267;48.194;11.546;2022-08-19T06:19:08;16.75;;;10.73;;
29238;SDS011;16267;48.194;11.546;2022-08-19T06:21:37;12.43;;;9.30;;
29238;SDS011;16267;48.194;11.546;2022-08-19T06:24:06;10.55;;;9.00;;
29238;SDS011;16267;48.194;11.546;2022-08-19T06:26:35;17.33;;;11.48;;
29238;SDS011;16267;48.194;11.546;2022-08-19T06:29:04;13.13;;;11.77;;
29238;SDS011;16267;48.194;11.546;2022-08-19T06:31:32;17.23;;;12.40;;
29238;SDS011;16267;48.194;11.546;2022-08-19T06:34:03;15.45;;;12.20;;
29238;SDS011;16267;48.194;11.546;2022-08-19T06:36:32;14.77;;;11.15;;
29238;SDS011;16267;48.194;11.546;2022-08-19T06:39:03;14.63;;;12.27;;
29238;SDS011;16267;48.194;11.546;2022-08-19T06:41:32;12.55;;;11.23;;
29238;SDS011;16267;48.194;11.546;2022-08-19T06:44:02;15.27;;;11.32;;
29238;SDS011;16267;48.194;11.546;2022-08-19T06:46:28;15.80;;;13.18;;
29238;SDS011;16267;48.194;11.546;2022-08-19T06:48:55;17.23;;;12.77;;
29238;SDS011;16267;48.194;11.546;2022-08-19T06:51:22;18.90;;;13.27;;
29238;SDS011;16267;48.194;11.546;2022-08-19T06:53:49;14.07;;;12.15;;
29238;SDS011;16267;48.194;11.546;2022-08-19T06:56:19;15.27;;;12.73;;
29238;SDS011;16267;48.194;11.546;2022-08-19T06:59:06;15.52;;;12.52;;
29238;SDS011;16267;48.194;11.546;2022-08-19T07:01:41;14.15;;;11.13;;
29238;SDS011;16267;48.194;11.546;2022-08-19T07:04:12;16.42;;;12.57;;
29238;SDS011;16267;48.194;11.546;2022-08-19T07:06:41;15.00;;;12.90;;
29238;SDS011;16267;48.194;11.546;2022-08-19T07:09:09;16.35;;;12.55;;
29238;SDS011;16267;48.194;11.546;2022-08-19T07:11:43;19.30;;;13.68;;
29238;SDS011;16267;48.194;11.546;2022-08-19T07:14:15;15.77;;;13.10;;
29238;SDS011;16267;48.194;11.546;2022-08-19T07:16:44;18.40;;;14.32;;
29238;SDS011;16267;48.194;11.546;2022-08-19T07:19:12;15.02;;;13.25;;
29238;SDS011;16267;48.194;11.546;2022-08-19T07:21:39;15.40;;;13.02;;
29238;SDS011;16267;48.194;11.546;2022-08-19T07:24:06;17.92;;;14.30;;
29238;SDS011;16267;48.194;11.546;2022-08-19T07:26:33;17.08;;;13.77;;
29238;SDS011;16267;48.194;11.546;2022-08-19T07:29:04;20.98;;;17.13;;
29238;SDS011;16267;48.194;11.546;2022-08-19T07:31:31;21.60;;;16.88;;
29238;SDS011;16267;48.194;11.546;2022-08-19T07:34:02;24.58;;;16.90;;
29238;SDS011;16267;48.194;11.546;2022-08-19T07:36:33;24.08;;;18.00;;
29238;SDS011;16267;48.194;11.546;2022-08-19T07:39:13;26.50;;;18.27;;
29238;SDS011;16267;48.194;11.546;2022-08-19T07:41:44;23.08;;;18.45;;
29238;SDS011;16267;48.194;11.546;2022-08-19T07:44:12;26.30;;;19.58;;
29238;SDS011;16267;48.194;11.546;2022-08-19T07:46:43;29.30;;;20.67;;
29238;SDS011;16267;48.194;11.546;2022-08-19T07:49:13;29.67;;;21.73;;
29238;SDS011;16267;48.194;11.546;2022-08-19T07:51:45;33.10;;;24.20;;
29238;SDS011;16267;48.194;11.546;2022-08-19T07:54:21;31.52;;;22.15;;
29238;SDS011;16267;48.194;11.546;2022-08-19T07:56:49;30.30;;;22.20;;
29238;SDS011;16267;48.194;11.546;2022-08-19T07:59:16;31.00;;;23.98;;
29238;SDS011;16267;48.194;11.546;2022-08-19T08:01:44;30.40;;;22.70;;
29238;SDS011;16267;48.194;11.546;2022-08-19T08:04:10;32.33;;;23.30;;
29238;SDS011;16267;48.194;11.546;2022-08-19T08:06:54;32.33;;;24.05;;
29238;SDS011;16267;48.194;11.546;2022-08-19T08:09:40;29.33;;;22.42;;
29238;SDS011;16267;48.194;11.546;2022-08-19T08:12:26;30.40;;;22.83;;
29238;SDS011;16267;48.194;11.546;2022-08-19T08:14:58;36.33;;;25.88;;
29238;SDS011;16267;48.194;11.546;2022-08-19T08:17:29;32.30;;;23.77;;
29238;SDS011;16267;48.194;11.546;2022-08-19T08:19:56;30.20;;;24.42;;
29238;SDS011;16267;48.194;11.546;2022-08-19T08:22:22;35.63;;;26.73;;
29238;SDS011;16267;48.194;11.546;2022-08-19T08:25:12;35.53;;;25.55;;
29238;SDS011;16267;48.194;11.546;2022-08-19T08:27:42;32.35;;;24.67;;
29238;SDS011;16267;48.194;11.546;2022-08-19T08:30:11;34.08;;;24.75;;
29238;SDS011;16267;48.194;11.546;2022-08-19T08:32:49;32.33;;;22.98;;
29238;SDS011;16267;48.194;11.546;2022-08-19T08:35:17;29.52;;;23.00;;
29238;SDS011;16267;48.194;11.546;2022-08-19T08:37:46;28.38;;;21.85;;
29238;SDS011;16267;48.194;11.546;2022-08-19T08:40:20;30.52;;;22.20;;
29238;SDS011;16267;48.194;11.546;2022-08-19T08:43:05;34.05;;;24.65;;
29238;SDS011;16267;48.194;11.546;2022-08-19T08:45:44;35.53;;;24.75;;
29238;SDS011;16267;48.194;11.546;2022-08-19T08:48:24;29.88;;;22.48;;
29238;SDS011;16267;48.194;11.546;2022-08-19T08:51:04;29.67;;;21.27;;
29238;SDS011;16267;48.194;11.546;2022-08-19T08:53:39;27.58;;;20.60;;
29238;SDS011;16267;48.194;11.546;2022-08-19T08:56:08;30.48;;;22.45;;
29238;SDS011;16267;48.194;11.546;2022-08-19T08:58:58;28.75;;;22.58;;
29238;SDS011;16267;48.194;11.546;2022-08-19T09:01:32;28.73;;;21.67;;
29238;SDS011;16267;48.194;11.546;2022-08-19T09:03:58;29.60;;;23.73;;
29238;SDS011;16267;48.194;11.546;2022-08-19T09:06:38;29.35;;;22.75;;
29238;SDS011;16267;48.194;11.546;2022-08-19T09:09:37;27.70;;;21.80;;
29238;SDS011;16267;48.194;11.546;2022-08-19T09:17:35;31.33;;;24.33;;
29238;SDS011;16267;48.194;11.546;2022-08-19T09:22:33;28.77;;;22.88;;
29238;SDS011;16267;48.194;11.546;2022-08-19T09:25:04;29.42;;;23.08;;
29238;SDS011;16267;48.194;11.546;2022-08-19T09:27:32;34.35;;;25.77;;
29238;SDS011;16267;48.194;11.546;2022-08-19T09:29:58;32.55;;;22.90;;
29238;SDS011;16267;48.194;11.546;2022-08-19T09:32:24;29.33;;;23.17;;
29238;SDS011;16267;48.194;11.546;2022-08-19T09:34:51;34.45;;;23.83;;
29238;SDS011;16267;48.194;11.546;2022-08-19T09:37:20;30.10;;;23.00;;
29238;SDS011;16267;48.194;11.546;2022-08-19T09:39:47;33.60;;;26.58;;
29238;SDS011;16267;48.194;11.546;2022-08-19T09:42:12;33.22;;;23.60;;
29238;SDS011;16267;48.194;11.546;2022-08-19T09:44:39;33.45;;;23.13;;
29238;SDS011;16267;48.194;11.546;2022-08-19T09:47:07;31.40;;;23.38;;
29238;SDS011;16267;48.194;11.546;2022-08-19T09:49:36;31.20;;;23.38;;
29238;SDS011;16267;48.194;11.546;2022-08-19T09:52:02;28.73;;;21.95;;
29238;SDS011;16267;48.194;11.546;2022-08-19T09:54:28;27.92;;;22.55;;
29238;SDS011;16267;48.194;11.546;2022-08-19T09:56:54;33.78;;;25.40;;
29238;SDS011;16267;48.194;11.546;2022-08-19T09:59:23;32.60;;;23.25;;
29238;SDS011;16267;48.194;11.546;2022-08-19T10:01:49;26.20;;;20.90;;
29238;SDS011;16267;48.194;11.546;2022-08-19T10:04:16;27.77;;;21.48;;
29238;SDS011;16267;48.194;11.546;2022-08-19T10:06:42;28.30;;;21.02;;
29238;SDS011;16267;48.194;11.546;2022-08-19T10:09:09;26.85;;;20.50;;
29238;SDS011;16267;48.194;11.546;2022-08-19T10:11:36;26.05;;;20.58;;
29238;SDS011;16267;48.194;11.546;2022-08-19T10:14:05;27.05;;;19.27;;
29238;SDS011;16267;48.194;11.546;2022-08-19T10:16:32;31.85;;;21.90;;
29238;SDS011;16267;48.194;11.546;2022-08-19T10:19:00;27.75;;;18.80;;
29238;SDS011;16267;48.194;11.546;2022-08-19T10:21:28;22.70;;;17.48;;
29238;SDS011;16267;48.194;11.546;2022-08-19T10:23:56;28.35;;;19.17;;
29238;SDS011;16267;48.194;11.546;2022-08-19T10:26:29;24.25;;;17.27;;
29238;SDS011;16267;48.194;11.546;2022-08-19T10:29:02;27.52;;;20.27;;
29238;SDS011;16267;48.194;11.546;2022-08-19T10:31:30;27.52;;;20.33;;
29238;SDS011;16267;48.194;11.546;2022-08-19T10:33:59;22.98;;;17.05;;
29238;SDS011;16267;48.194;11.546;2022-08-19T10:36:29;25.02;;;18.35;;
29238;SDS011;16267;48.194;11.546;2022-08-19T10:39:03;29.98;;;21.85;;
29238;SDS011;16267;48.194;11.546;2022-08-19T10:41:34;27.52;;;21.33;;
29238;SDS011;16267;48.194;11.546;2022-08-19T10:44:08;24.52;;;18.77;;
29238;SDS011;16267;48.194;11.546;2022-08-19T10:46:37;26.42;;;19.02;;
29238;SDS011;16267;48.194;11.546;2022-08-19T10:49:11;20.13;;;16.42;;
29238;SDS011;16267;48.194;11.546;2022-08-19T10:51:41;21.08;;;15.70;;
29238;SDS011;16267;48.194;11.546;2022-08-19T10:54:26;22.42;;;15.70;;
29238;SDS011;16267;48.194;11.546;2022-08-19T10:57:12;19.27;;;15.30;;
29238;SDS011;16267;48.194;11.546;2022-08-19T10:59:38;22.23;;;16.77;;
29238;SDS011;16267;48.194;11.546;2022-08-19T11:02:05;17.85;;;12.90;;
29238;SDS011;16267;48.194;11.546;2022-08-19T11:04:39;14.23;;;10.93;;
29238;SDS011;16267;48.194;11.546;2022-08-19T11:07:05;13.20;;;11.32;;
29238;SDS011;16267;48.194;11.546;2022-08-19T11:09:36;12.40;;;10.23;;
29238;SDS011;16267;48.194;11.546;2022-08-19T11:12:07;13.93;;;9.00;;
29238;SDS011;16267;48.194;11.546;2022-08-19T11:14:34;8.77;;;7.57;;
29238;SDS011;16267;48.194;11.546;2022-08-19T11:17:02;8.25;;;6.55;;
29238;SDS011;16267;48.194;11.546;2022-08-19T11:19:30;6.15;;;5.50;;
29238;SDS011;16267;48.194;11.546;2022-08-19T11:21:56;6.47;;;4.63;;
29238;SDS011;16267;48.194;11.546;2022-08-19T11:24:24;4.93;;;4.45;;
29238;SDS011;16267;48.194;11.546;2022-08-19T11:26:52;5.07;;;4.25;;
29238;SDS011;16267;48.194;11.546;2022-08-19T11:29:25;5.70;;;3.88;;
29238;SDS011;16267;48.194;11.546;2022-08-19T11:31:52;4.70;;;3.50;;
29238;SDS011;16267;48.194;11.546;2022-08-19T11:34:25;3.42;;;2.70;;
29238;SDS011;16267;48.194;11.546;2022-08-19T11:36:53;2.85;;;2.50;;
29238;SDS011;16267;48.194;11.546;2022-08-19T11:39:23;3.38;;;2.42;;
29238;SDS011;16267;48.194;11.546;2022-08-19T11:41:52;3.70;;;2.70;;
29238;SDS011;16267;48.194;11.546;2022-08-19T11:44:18;5.57;;;2.40;;
29238;SDS011;16267;48.194;11.546;2022-08-19T11:46:44;4.10;;;2.53;;
29238;SDS011;16267;48.194;11.546;2022-08-19T11:49:11;2.58;;;2.00;;
29238;SDS011;16267;48.194;11.546;2022-08-19T11:51:43;2.63;;;1.90;;
29238;SDS011;16267;48.194;11.546;2022-08-19T11:54:10;2.72;;;1.50;;
29238;SDS011;16267;48.194;11.546;2022-08-19T11:56:38;3.05;;;1.88;;
29238;SDS011;16267;48.194;11.546;2022-08-19T11:59:05;2.65;;;2.20;;
29238;SDS011;16267;48.194;11.546;2022-08-19T12:01:32;2.78;;;2.17;;
29238;SDS011;16267;48.194;11.546;2022-08-19T12:03:59;1.80;;;1.70;;
29238;SDS011;16267;48.194;11.546;2022-08-19T12:06:29;2.50;;;1.90;;
29238;SDS011;16267;48.194;11.546;2022-08-19T12:08:59;2.13;;;1.50;;
29238;SDS011;16267;48.194;11.546;2022-08-19T12:11:32;2.08;;;1.60;;
29238;SDS011;16267;48.194;11.546;2022-08-19T12:13:58;2.75;;;1.73;;
29238;SDS011;16267;48.194;11.546;2022-08-19T12:16:25;2.05;;;1.55;;
29238;SDS011;16267;48.194;11.546;2022-08-19T12:18:54;1.88;;;1.50;;
29238;SDS011;16267;48.194;11.546;2022-08-19T12:21:22;1.48;;;1.10;;
29238;SDS011;16267;48.194;11.546;2022-08-19T12:23:52;1.58;;;1.33;;
29238;SDS011;16267;48.194;11.546;2022-08-19T12:26:19;1.95;;;1.33;;
29238;SDS011;16267;48.194;11.546;2022-08-19T12:28:48;1.75;;;1.10;;
29238;SDS011;16267;48.194;11.546;2022-08-19T12:31:16;2.42;;;1.33;;
29238;SDS011;16267;48.194;11.546;2022-08-19T12:33:42;2.03;;;1.30;;
29238;SDS011;16267;48.194;11.546;2022-08-19T12:38:40;1.60;;;1.20;;
29238;SDS011;16267;48.194;11.546;2022-08-19T12:41:09;1.10;;;1.00;;
29238;SDS011;16267;48.194;11.546;2022-08-19T12:43:38;1.75;;;1.00;;
29238;SDS011;16267;48.194;11.546;2022-08-19T12:46:07;1.52;;;0.85;;
29238;SDS011;16267;48.194;11.546;2022-08-19T12:51:12;3.35;;;1.10;;
29238;SDS011;16267;48.194;11.546;2022-08-19T12:53:45;1.27;;;0.90;;
29238;SDS011;16267;48.194;11.546;2022-08-19T12:56:14;1.05;;;0.95;;
29238;SDS011;16267;48.194;11.546;2022-08-19T12:58:40;1.40;;;1.02;;
29238;SDS011;16267;48.194;11.546;2022-08-19T13:01:11;2.38;;;1.10;;
29238;SDS011;16267;48.194;11.546;2022-08-19T13:03:41;2.88;;;1.10;;
29238;SDS011;16267;48.194;11.546;2022-08-19T13:06:08;1.83;;;1.00;;
29238;SDS011;16267;48.194;11.546;2022-08-19T13:08:35;1.00;;;0.90;;
29238;SDS011;16267;48.194;11.546;2022-08-19T13:11:09;0.82;;;0.80;;
29238;SDS011;16267;48.194;11.546;2022-08-19T13:13:42;1.08;;;0.90;;
29238;SDS011;16267;48.194;11.546;2022-08-19T13:18:41;3.53;;;1.05;;
29238;SDS011;16267;48.194;11.546;2022-08-19T13:21:16;1.10;;;1.00;;
29238;SDS011;16267;48.194;11.546;2022-08-19T13:23:44;2.85;;;0.98;;
29238;SDS011;16267;48.194;11.546;2022-08-19T13:26:11;1.48;;;0.98;;
29238;SDS011;16267;48.194;11.546;2022-08-19T13:28:38;1.10;;;1.00;;
29238;SDS011;16267;48.194;11.546;2022-08-19T13:31:25;2.15;;;1.10;;
29238;SDS011;16267;48.194;11.546;2022-08-19T13:34:14;2.55;;;1.00;;
29238;SDS011;16267;48.194;11.546;2022-08-19T13:36:42;1.98;;;1.30;;
29238;SDS011;16267;48.194;11.546;2022-08-19T13:39:08;2.08;;;1.45;;
29238;SDS011;16267;48.194;11.546;2022-08-19T13:41:36;1.95;;;1.75;;
29238;SDS011;16267;48.194;11.546;2022-08-19T13:44:03;3.42;;;2.05;;
29238;SDS011;16267;48.194;11.546;2022-08-19T13:46:31;2.42;;;2.00;;
29238;SDS011;16267;48.194;11.546;2022-08-19T13:48:59;2.30;;;2.00;;
29238;SDS011;16267;48.194;11.546;2022-08-19T13:51:26;5.32;;;2.60;;
29238;SDS011;16267;48.194;11.546;2022-08-19T13:53:52;2.83;;;2.53;;
29238;SDS011;16267;48.194;11.546;2022-08-19T13:56:18;3.22;;;2.92;;
29238;SDS011;16267;48.194;11.546;2022-08-19T13:58:44;4.10;;;3.30;;
29238;SDS011;16267;48.194;11.546;2022-08-19T14:01:11;3.60;;;3.05;;
29238;SDS011;16267;48.194;11.546;2022-08-19T14:03:37;4.00;;;3.30;;
29238;SDS011;16267;48.194;11.546;2022-08-19T14:06:04;4.90;;;3.75;;
29238;SDS011;16267;48.194;11.546;2022-08-19T14:08:31;3.38;;;3.08;;
29238;SDS011;16267;48.194;11.546;2022-08-19T14:10:57;4.50;;;3.38;;
29238;SDS011;16267;48.194;11.546;2022-08-19T14:13:24;3.10;;;2.80;;
29238;SDS011;16267;48.194;11.546;2022-08-19T14:15:50;3.45;;;3.15;;
29238;SDS011;16267;48.194;11.546;2022-08-19T14:18:17;4.13;;;3.20;;
29238;SDS011;16267;48.194;11.546;2022-08-19T14:20:44;2.80;;;2.55;;
29238;SDS011;16267;48.194;11.546;2022-08-19T14:23:10;3.55;;;3.22;;
29238;SDS011;16267;48.194;11.546;2022-08-19T14:25:37;3.85;;;3.17;;
29238;SDS011;16267;48.194;11.546;2022-08-19T14:28:05;4.53;;;3.10;;
29238;SDS011;16267;48.194;11.546;2022-08-19T14:30:33;3.60;;;2.90;;
29238;SDS011;16267;48.194;11.546;2022-08-19T14:33:02;3.28;;;2.67;;
29238;SDS011;16267;48.194;11.546;2022-08-19T14:35:30;3.30;;;3.00;;
29238;SDS011;16267;48.194;11.546;2022-08-19T14:38:00;3.38;;;3.08;;
29238;SDS011;16267;48.194;11.546;2022-08-19T14:40:30;4.15;;;3.17;;
29238;SDS011;16267;48.194;11.546;2022-08-19T14:42:57;3.13;;;2.83;;
29238;SDS011;16267;48.194;11.546;2022-08-19T14:45:36;3.70;;;3.15;;
29238;SDS011;16267;48.194;11.546;2022-08-19T14:48:04;3.10;;;2.80;;
29238;SDS011;16267;48.194;11.546;2022-08-19T14:50:32;3.30;;;3.00;;
29238;SDS011;16267;48.194;11.546;2022-08-19T14:53:04;3.20;;;2.90;;
29238;SDS011;16267;48.194;11.546;2022-08-19T14:55:40;3.55;;;3.25;;
29238;SDS011;16267;48.194;11.546;2022-08-19T14:58:14;3.50;;;3.20;;
29238;SDS011;16267;48.194;11.546;2022-08-19T15:00:40;5.45;;;3.10;;
29238;SDS011;16267;48.194;11.546;2022-08-19T15:03:06;3.85;;;3.35;;
29238;SDS011;16267;48.194;11.546;2022-08-19T15:05:37;3.75;;;3.30;;